sensor_id;sensor_type;location;lat;lon;timestamp;P1;durP1;ratioP1;P2;durP2;ratioP2
21519;SDS011;10921;53.614;9.882;2022-09-16T00:01:35;38.88;;;31.98;;
21519;SDS011;10921;53.614;9.882;2022-09-16T00:04:01;35.28;;;31.58;;
21519;SDS011;10921;53.614;9.882;2022-09-16T00:06:28;35.78;;;31.38;;
21519;SDS011;10921;53.614;9.882;2022-09-16T00:08:56;37.70;;;31.92;;
21519;SDS011;10921;53.614;9.882;2022-09-16T00:11:26;38.70;;;31.92;;
21519;SDS011;10921;53.614;9.882;2022-09-16T00:13:53;34.85;;;30.65;;
21519;SDS011;10921;53.614;9.882;2022-09-16T00:16:21;37.90;;;31.42;;
21519;SDS011;10921;53.614;9.882;2022-09-16T00:18:53;38.60;;;31.00;;
21519;SDS011;10921;53.614;9.882;2022-09-16T00:21:21;35.55;;;31.70;;
21519;SDS011;10921;53.614;9.882;2022-09-16T00:23:47;35.92;;;30.83;;
21519;SDS011;10921;53.614;9.882;2022-09-16T00:26:14;35.50;;;31.75;;
21519;SDS011;10921;53.614;9.882;2022-09-16T00:28:41;38.40;;;31.70;;
21519;SDS011;10921;53.614;9.882;2022-09-16T00:31:07;34.47;;;30.92;;
21519;SDS011;10921;53.614;9.882;2022-09-16T00:33:34;36.72;;;31.10;;
21519;SDS011;10921;53.614;9.882;2022-09-16T00:36:07;38.13;;;31.35;;
21519;SDS011;10921;53.614;9.882;2022-09-16T00:38:41;37.22;;;31.85;;
21519;SDS011;10921;53.614;9.882;2022-09-16T00:41:13;41.65;;;31.80;;
21519;SDS011;10921;53.614;9.882;2022-09-16T00:43:49;34.90;;;31.20;;
21519;SDS011;10921;53.614;9.882;2022-09-16T00:46:16;39.05;;;31.52;;
21519;SDS011;10921;53.614;9.882;2022-09-16T00:48:48;39.58;;;31.70;;
21519;SDS011;10921;53.614;9.882;2022-09-16T00:51:15;35.10;;;31.33;;
21519;SDS011;10921;53.614;9.882;2022-09-16T00:53:56;37.33;;;32.05;;
21519;SDS011;10921;53.614;9.882;2022-09-16T00:56:28;35.50;;;31.83;;
21519;SDS011;10921;53.614;9.882;2022-09-16T00:59:04;35.00;;;31.23;;
21519;SDS011;10921;53.614;9.882;2022-09-16T01:01:35;36.65;;;31.45;;
21519;SDS011;10921;53.614;9.882;2022-09-16T01:04:17;35.05;;;31.30;;
21519;SDS011;10921;53.614;9.882;2022-09-16T01:06:47;44.17;;;31.60;;
21519;SDS011;10921;53.614;9.882;2022-09-16T01:09:15;35.42;;;31.55;;
21519;SDS011;10921;53.614;9.882;2022-09-16T01:11:43;40.25;;;32.10;;
21519;SDS011;10921;53.614;9.882;2022-09-16T01:14:09;40.08;;;32.08;;
21519;SDS011;10921;53.614;9.882;2022-09-16T01:26:08;34.97;;;31.17;;
21519;SDS011;10921;53.614;9.882;2022-09-16T01:28:55;35.38;;;31.65;;
21519;SDS011;10921;53.614;9.882;2022-09-16T01:31:58;35.03;;;31.38;;
21519;SDS011;10921;53.614;9.882;2022-09-16T01:37:14;34.47;;;31.02;;
21519;SDS011;10921;53.614;9.882;2022-09-16T01:43:19;34.97;;;31.42;;
21519;SDS011;10921;53.614;9.882;2022-09-16T01:46:16;35.25;;;31.67;;
21519;SDS011;10921;53.614;9.882;2022-09-16T01:48:47;36.13;;;32.15;;
21519;SDS011;10921;53.614;9.882;2022-09-16T01:56:36;42.03;;;32.80;;
21519;SDS011;10921;53.614;9.882;2022-09-16T01:59:22;37.33;;;32.22;;
21519;SDS011;10921;53.614;9.882;2022-09-16T02:04:44;41.95;;;32.78;;
21519;SDS011;10921;53.614;9.882;2022-09-16T02:07:16;36.60;;;32.67;;
21519;SDS011;10921;53.614;9.882;2022-09-16T02:09:56;35.05;;;31.55;;
21519;SDS011;10921;53.614;9.882;2022-09-16T02:12:33;35.80;;;32.28;;
21519;SDS011;10921;53.614;9.882;2022-09-16T02:15:04;35.58;;;31.95;;
21519;SDS011;10921;53.614;9.882;2022-09-16T02:17:35;37.47;;;32.85;;
21519;SDS011;10921;53.614;9.882;2022-09-16T02:20:13;36.90;;;32.28;;
21519;SDS011;10921;53.614;9.882;2022-09-16T02:22:46;37.42;;;32.88;;
21519;SDS011;10921;53.614;9.882;2022-09-16T02:25:17;37.08;;;32.53;;
21519;SDS011;10921;53.614;9.882;2022-09-16T02:27:44;40.15;;;33.15;;
21519;SDS011;10921;53.614;9.882;2022-09-16T02:30:15;36.13;;;32.22;;
21519;SDS011;10921;53.614;9.882;2022-09-16T02:32:45;36.42;;;32.70;;
21519;SDS011;10921;53.614;9.882;2022-09-16T02:35:16;36.15;;;32.15;;
21519;SDS011;10921;53.614;9.882;2022-09-16T02:37:47;38.07;;;32.40;;
21519;SDS011;10921;53.614;9.882;2022-09-16T02:40:18;36.05;;;32.25;;
21519;SDS011;10921;53.614;9.882;2022-09-16T02:42:49;44.33;;;33.28;;
21519;SDS011;10921;53.614;9.882;2022-09-16T02:45:16;36.90;;;32.42;;
21519;SDS011;10921;53.614;9.882;2022-09-16T02:50:52;35.13;;;31.60;;
21519;SDS011;10921;53.614;9.882;2022-09-16T02:53:32;38.92;;;32.35;;
21519;SDS011;10921;53.614;9.882;2022-09-16T02:56:23;35.60;;;31.95;;
21519;SDS011;10921;53.614;9.882;2022-09-16T02:58:56;35.85;;;32.13;;
21519;SDS011;10921;53.614;9.882;2022-09-16T03:01:23;35.42;;;31.83;;
21519;SDS011;10921;53.614;9.882;2022-09-16T03:03:53;35.55;;;31.83;;
21519;SDS011;10921;53.614;9.882;2022-09-16T03:06:21;36.28;;;32.22;;
21519;SDS011;10921;53.614;9.882;2022-09-16T03:08:50;35.90;;;32.17;;
21519;SDS011;10921;53.614;9.882;2022-09-16T03:11:28;34.95;;;31.27;;
21519;SDS011;10921;53.614;9.882;2022-09-16T03:14:07;35.40;;;32.00;;
21519;SDS011;10921;53.614;9.882;2022-09-16T03:20:02;36.30;;;31.38;;
21519;SDS011;10921;53.614;9.882;2022-09-16T03:28:01;37.22;;;31.42;;
21519;SDS011;10921;53.614;9.882;2022-09-16T03:31:25;34.58;;;31.02;;
21519;SDS011;10921;53.614;9.882;2022-09-16T03:33:52;37.97;;;31.85;;
21519;SDS011;10921;53.614;9.882;2022-09-16T03:36:31;35.47;;;31.13;;
21519;SDS011;10921;53.614;9.882;2022-09-16T03:39:01;35.08;;;31.45;;
21519;SDS011;10921;53.614;9.882;2022-09-16T03:41:31;36.30;;;31.87;;
21519;SDS011;10921;53.614;9.882;2022-09-16T03:43:59;40.97;;;32.42;;
21519;SDS011;10921;53.614;9.882;2022-09-16T03:48:56;37.20;;;31.75;;
21519;SDS011;10921;53.614;9.882;2022-09-16T03:51:23;36.78;;;32.67;;
21519;SDS011;10921;53.614;9.882;2022-09-16T03:53:51;41.70;;;32.38;;
21519;SDS011;10921;53.614;9.882;2022-09-16T03:56:18;44.92;;;32.53;;
21519;SDS011;10921;53.614;9.882;2022-09-16T03:58:48;35.83;;;31.65;;
21519;SDS011;10921;53.614;9.882;2022-09-16T04:01:15;38.05;;;31.75;;
21519;SDS011;10921;53.614;9.882;2022-09-16T04:03:42;37.22;;;31.48;;
21519;SDS011;10921;53.614;9.882;2022-09-16T04:06:08;36.65;;;31.23;;
21519;SDS011;10921;53.614;9.882;2022-09-16T04:08:35;37.60;;;31.55;;
21519;SDS011;10921;53.614;9.882;2022-09-16T04:11:03;34.55;;;30.98;;
21519;SDS011;10921;53.614;9.882;2022-09-16T04:13:33;39.20;;;31.38;;
21519;SDS011;10921;53.614;9.882;2022-09-16T04:16:01;34.85;;;31.15;;
21519;SDS011;10921;53.614;9.882;2022-09-16T04:18:29;35.20;;;30.98;;
21519;SDS011;10921;53.614;9.882;2022-09-16T04:20:57;36.35;;;31.23;;
21519;SDS011;10921;53.614;9.882;2022-09-16T04:23:25;34.35;;;30.85;;
21519;SDS011;10921;53.614;9.882;2022-09-16T04:25:56;35.25;;;31.55;;
21519;SDS011;10921;53.614;9.882;2022-09-16T04:28:24;34.83;;;31.25;;
21519;SDS011;10921;53.614;9.882;2022-09-16T04:30:51;36.30;;;31.75;;
21519;SDS011;10921;53.614;9.882;2022-09-16T04:33:17;35.17;;;31.58;;
21519;SDS011;10921;53.614;9.882;2022-09-16T04:35:44;34.58;;;31.27;;
21519;SDS011;10921;53.614;9.882;2022-09-16T04:38:10;37.58;;;31.08;;
21519;SDS011;10921;53.614;9.882;2022-09-16T04:40:37;37.17;;;31.08;;
21519;SDS011;10921;53.614;9.882;2022-09-16T04:43:06;33.88;;;30.60;;
21519;SDS011;10921;53.614;9.882;2022-09-16T04:45:32;35.13;;;31.35;;
21519;SDS011;10921;53.614;9.882;2022-09-16T04:47:59;34.67;;;31.38;;
21519;SDS011;10921;53.614;9.882;2022-09-16T04:50:25;34.60;;;30.98;;
21519;SDS011;10921;53.614;9.882;2022-09-16T04:52:52;37.45;;;30.88;;
21519;SDS011;10921;53.614;9.882;2022-09-16T04:55:19;34.63;;;30.92;;
21519;SDS011;10921;53.614;9.882;2022-09-16T04:57:48;39.35;;;31.00;;
21519;SDS011;10921;53.614;9.882;2022-09-16T05:00:15;35.38;;;30.17;;
21519;SDS011;10921;53.614;9.882;2022-09-16T05:02:45;35.28;;;30.77;;
21519;SDS011;10921;53.614;9.882;2022-09-16T05:05:11;38.90;;;30.83;;
21519;SDS011;10921;53.614;9.882;2022-09-16T05:07:38;38.90;;;30.60;;
21519;SDS011;10921;53.614;9.882;2022-09-16T05:10:05;34.13;;;30.50;;
21519;SDS011;10921;53.614;9.882;2022-09-16T05:12:31;35.90;;;31.42;;
21519;SDS011;10921;53.614;9.882;2022-09-16T05:14:58;40.42;;;30.88;;
21519;SDS011;10921;53.614;9.882;2022-09-16T05:17:24;35.45;;;30.85;;
21519;SDS011;10921;53.614;9.882;2022-09-16T05:20:11;33.90;;;30.08;;
21519;SDS011;10921;53.614;9.882;2022-09-16T05:22:37;35.40;;;30.90;;
21519;SDS011;10921;53.614;9.882;2022-09-16T05:25:04;45.78;;;31.77;;
21519;SDS011;10921;53.614;9.882;2022-09-16T05:27:31;35.13;;;31.38;;
21519;SDS011;10921;53.614;9.882;2022-09-16T05:29:58;36.83;;;31.23;;
21519;SDS011;10921;53.614;9.882;2022-09-16T05:32:24;39.25;;;31.73;;
21519;SDS011;10921;53.614;9.882;2022-09-16T05:34:51;36.85;;;31.63;;
21519;SDS011;10921;53.614;9.882;2022-09-16T05:37:17;35.38;;;31.50;;
21519;SDS011;10921;53.614;9.882;2022-09-16T05:39:44;35.42;;;31.73;;
21519;SDS011;10921;53.614;9.882;2022-09-16T05:42:10;38.70;;;31.02;;
21519;SDS011;10921;53.614;9.882;2022-09-16T05:44:36;38.40;;;31.08;;
21519;SDS011;10921;53.614;9.882;2022-09-16T05:47:03;36.33;;;31.35;;
21519;SDS011;10921;53.614;9.882;2022-09-16T05:49:29;34.22;;;30.73;;
21519;SDS011;10921;53.614;9.882;2022-09-16T05:51:56;36.78;;;31.23;;
21519;SDS011;10921;53.614;9.882;2022-09-16T05:54:22;34.67;;;31.08;;
21519;SDS011;10921;53.614;9.882;2022-09-16T05:56:50;35.35;;;30.83;;
21519;SDS011;10921;53.614;9.882;2022-09-16T05:59:16;40.83;;;32.25;;
21519;SDS011;10921;53.614;9.882;2022-09-16T06:01:43;35.05;;;31.27;;
21519;SDS011;10921;53.614;9.882;2022-09-16T06:04:11;35.60;;;31.77;;
21519;SDS011;10921;53.614;9.882;2022-09-16T06:06:39;34.92;;;31.38;;
21519;SDS011;10921;53.614;9.882;2022-09-16T06:09:09;39.00;;;31.63;;
21519;SDS011;10921;53.614;9.882;2022-09-16T06:11:38;36.50;;;30.80;;
21519;SDS011;10921;53.614;9.882;2022-09-16T06:14:06;39.85;;;30.80;;
21519;SDS011;10921;53.614;9.882;2022-09-16T06:16:33;35.03;;;30.30;;
21519;SDS011;10921;53.614;9.882;2022-09-16T06:19:02;40.03;;;30.80;;
21519;SDS011;10921;53.614;9.882;2022-09-16T06:21:30;34.60;;;30.35;;
21519;SDS011;10921;53.614;9.882;2022-09-16T06:23:57;42.90;;;30.42;;
21519;SDS011;10921;53.614;9.882;2022-09-16T06:26:24;36.20;;;30.63;;
21519;SDS011;10921;53.614;9.882;2022-09-16T06:28:51;35.15;;;31.27;;
21519;SDS011;10921;53.614;9.882;2022-09-16T06:31:22;42.75;;;31.83;;
21519;SDS011;10921;53.614;9.882;2022-09-16T06:33:51;34.80;;;31.02;;
21519;SDS011;10921;53.614;9.882;2022-09-16T06:36:20;34.25;;;30.67;;
21519;SDS011;10921;53.614;9.882;2022-09-16T06:38:48;33.78;;;29.92;;
21519;SDS011;10921;53.614;9.882;2022-09-16T06:41:16;35.88;;;30.13;;
21519;SDS011;10921;53.614;9.882;2022-09-16T06:43:44;33.15;;;29.83;;
21519;SDS011;10921;53.614;9.882;2022-09-16T06:46:12;34.75;;;29.33;;
21519;SDS011;10921;53.614;9.882;2022-09-16T06:48:47;34.10;;;30.00;;
21519;SDS011;10921;53.614;9.882;2022-09-16T06:51:17;33.05;;;29.45;;
21519;SDS011;10921;53.614;9.882;2022-09-16T06:53:48;36.88;;;28.65;;
21519;SDS011;10921;53.614;9.882;2022-09-16T06:56:17;31.00;;;27.98;;
21519;SDS011;10921;53.614;9.882;2022-09-16T06:58:49;32.75;;;27.77;;
21519;SDS011;10921;53.614;9.882;2022-09-16T07:01:24;33.78;;;27.90;;
21519;SDS011;10921;53.614;9.882;2022-09-16T07:03:57;31.15;;;27.88;;
21519;SDS011;10921;53.614;9.882;2022-09-16T07:06:30;32.10;;;27.50;;
21519;SDS011;10921;53.614;9.882;2022-09-16T07:09:18;31.75;;;26.95;;
21519;SDS011;10921;53.614;9.882;2022-09-16T07:11:47;29.98;;;26.80;;
21519;SDS011;10921;53.614;9.882;2022-09-16T07:14:16;33.05;;;26.38;;
21519;SDS011;10921;53.614;9.882;2022-09-16T07:16:43;29.58;;;26.55;;
21519;SDS011;10921;53.614;9.882;2022-09-16T07:19:12;30.20;;;25.45;;
21519;SDS011;10921;53.614;9.882;2022-09-16T07:21:39;26.92;;;24.40;;
21519;SDS011;10921;53.614;9.882;2022-09-16T07:24:10;25.48;;;23.13;;
21519;SDS011;10921;53.614;9.882;2022-09-16T07:26:41;24.45;;;21.90;;
21519;SDS011;10921;53.614;9.882;2022-09-16T07:29:13;23.48;;;20.95;;
21519;SDS011;10921;53.614;9.882;2022-09-16T07:31:45;22.10;;;20.00;;
21519;SDS011;10921;53.614;9.882;2022-09-16T07:36:52;20.58;;;18.42;;
21519;SDS011;10921;53.614;9.882;2022-09-16T07:39:22;21.42;;;17.92;;
21519;SDS011;10921;53.614;9.882;2022-09-16T07:41:53;23.90;;;17.63;;
21519;SDS011;10921;53.614;9.882;2022-09-16T07:44:20;19.67;;;16.88;;
21519;SDS011;10921;53.614;9.882;2022-09-16T07:46:53;18.77;;;15.65;;
21519;SDS011;10921;53.614;9.882;2022-09-16T07:49:21;17.63;;;15.43;;
21519;SDS011;10921;53.614;9.882;2022-09-16T07:51:48;18.95;;;15.25;;
21519;SDS011;10921;53.614;9.882;2022-09-16T07:54:18;15.80;;;14.23;;
21519;SDS011;10921;53.614;9.882;2022-09-16T07:56:47;19.75;;;14.30;;
21519;SDS011;10921;53.614;9.882;2022-09-16T07:59:21;18.90;;;14.48;;
21519;SDS011;10921;53.614;9.882;2022-09-16T08:01:51;20.05;;;14.27;;
21519;SDS011;10921;53.614;9.882;2022-09-16T08:04:21;16.30;;;13.18;;
21519;SDS011;10921;53.614;9.882;2022-09-16T08:06:48;18.60;;;13.07;;
21519;SDS011;10921;53.614;9.882;2022-09-16T08:12:08;15.27;;;13.20;;
21519;SDS011;10921;53.614;9.882;2022-09-16T08:14:43;16.13;;;12.80;;
21519;SDS011;10921;53.614;9.882;2022-09-16T08:17:22;17.58;;;12.48;;
21519;SDS011;10921;53.614;9.882;2022-09-16T08:19:57;19.13;;;12.35;;
21519;SDS011;10921;53.614;9.882;2022-09-16T08:22:27;16.45;;;12.77;;
21519;SDS011;10921;53.614;9.882;2022-09-16T08:24:54;19.65;;;13.70;;
21519;SDS011;10921;53.614;9.882;2022-09-16T08:27:25;21.70;;;12.88;;
21519;SDS011;10921;53.614;9.882;2022-09-16T08:29:55;18.08;;;12.52;;
21519;SDS011;10921;53.614;9.882;2022-09-16T08:32:25;15.43;;;11.88;;
21519;SDS011;10921;53.614;9.882;2022-09-16T08:34:54;15.63;;;11.38;;
21519;SDS011;10921;53.614;9.882;2022-09-16T08:37:29;20.42;;;13.15;;
21519;SDS011;10921;53.614;9.882;2022-09-16T08:39:58;18.00;;;12.93;;
21519;SDS011;10921;53.614;9.882;2022-09-16T08:42:41;17.13;;;12.40;;
21519;SDS011;10921;53.614;9.882;2022-09-16T08:45:53;17.73;;;12.82;;
21519;SDS011;10921;53.614;9.882;2022-09-16T08:48:53;15.40;;;12.20;;
21519;SDS011;10921;53.614;9.882;2022-09-16T08:51:31;15.57;;;12.63;;
21519;SDS011;10921;53.614;9.882;2022-09-16T08:54:11;18.52;;;12.60;;
21519;SDS011;10921;53.614;9.882;2022-09-16T08:57:00;20.17;;;12.27;;
21519;SDS011;10921;53.614;9.882;2022-09-16T08:59:34;21.38;;;12.07;;
21519;SDS011;10921;53.614;9.882;2022-09-16T09:02:27;20.67;;;10.88;;
21519;SDS011;10921;53.614;9.882;2022-09-16T09:05:01;17.58;;;10.80;;
21519;SDS011;10921;53.614;9.882;2022-09-16T09:10:24;13.57;;;10.77;;
21519;SDS011;10921;53.614;9.882;2022-09-16T09:13:37;18.65;;;10.88;;
21519;SDS011;10921;53.614;9.882;2022-09-16T09:24:22;14.52;;;11.13;;
21519;SDS011;10921;53.614;9.882;2022-09-16T09:27:21;16.55;;;10.40;;
21519;SDS011;10921;53.614;9.882;2022-09-16T09:30:07;15.75;;;10.60;;
21519;SDS011;10921;53.614;9.882;2022-09-16T09:39:09;16.83;;;11.10;;
21519;SDS011;10921;53.614;9.882;2022-09-16T09:42:06;14.20;;;10.48;;
21519;SDS011;10921;53.614;9.882;2022-09-16T09:47:45;11.05;;;9.88;;
21519;SDS011;10921;53.614;9.882;2022-09-16T09:50:50;11.40;;;10.20;;
21519;SDS011;10921;53.614;9.882;2022-09-16T09:53:43;14.70;;;10.32;;
21519;SDS011;10921;53.614;9.882;2022-09-16T09:56:17;14.57;;;10.60;;
21519;SDS011;10921;53.614;9.882;2022-09-16T09:59:07;12.57;;;9.95;;
21519;SDS011;10921;53.614;9.882;2022-09-16T10:01:36;14.93;;;9.73;;
21519;SDS011;10921;53.614;9.882;2022-09-16T10:04:07;15.32;;;9.82;;
21519;SDS011;10921;53.614;9.882;2022-09-16T10:06:43;16.33;;;10.10;;
21519;SDS011;10921;53.614;9.882;2022-09-16T10:09:11;16.15;;;9.70;;
21519;SDS011;10921;53.614;9.882;2022-09-16T10:12:02;16.75;;;9.85;;
21519;SDS011;10921;53.614;9.882;2022-09-16T10:14:40;16.83;;;10.00;;
21519;SDS011;10921;53.614;9.882;2022-09-16T10:17:15;16.42;;;9.60;;
21519;SDS011;10921;53.614;9.882;2022-09-16T10:19:59;14.70;;;9.52;;
21519;SDS011;10921;53.614;9.882;2022-09-16T10:22:34;11.52;;;9.23;;
21519;SDS011;10921;53.614;9.882;2022-09-16T10:25:20;12.73;;;9.25;;
21519;SDS011;10921;53.614;9.882;2022-09-16T10:27:56;15.13;;;9.50;;
21519;SDS011;10921;53.614;9.882;2022-09-16T10:30:28;17.35;;;10.25;;
21519;SDS011;10921;53.614;9.882;2022-09-16T10:33:10;14.10;;;9.65;;
21519;SDS011;10921;53.614;9.882;2022-09-16T10:35:50;15.13;;;9.27;;
21519;SDS011;10921;53.614;9.882;2022-09-16T10:38:23;15.43;;;9.88;;
21519;SDS011;10921;53.614;9.882;2022-09-16T10:41:08;12.40;;;9.45;;
21519;SDS011;10921;53.614;9.882;2022-09-16T10:46:31;16.33;;;9.68;;
21519;SDS011;10921;53.614;9.882;2022-09-16T10:49:10;13.85;;;9.43;;
21519;SDS011;10921;53.614;9.882;2022-09-16T10:52:07;15.80;;;9.70;;
21519;SDS011;10921;53.614;9.882;2022-09-16T10:54:47;14.98;;;9.77;;
21519;SDS011;10921;53.614;9.882;2022-09-16T11:00:14;16.38;;;10.85;;
21519;SDS011;10921;53.614;9.882;2022-09-16T11:03:00;15.88;;;9.77;;
21519;SDS011;10921;53.614;9.882;2022-09-16T11:09:21;13.80;;;9.15;;
21519;SDS011;10921;53.614;9.882;2022-09-16T11:12:15;14.57;;;11.77;;
21519;SDS011;10921;53.614;9.882;2022-09-16T11:14:58;30.30;;;27.02;;
21519;SDS011;10921;53.614;9.882;2022-09-16T11:20:31;37.03;;;30.17;;
21519;SDS011;10921;53.614;9.882;2022-09-16T11:26:00;35.58;;;29.65;;
21519;SDS011;10921;53.614;9.882;2022-09-16T11:34:42;34.60;;;29.23;;
21519;SDS011;10921;53.614;9.882;2022-09-16T11:43:05;32.85;;;27.50;;
21519;SDS011;10921;53.614;9.882;2022-09-16T11:49:14;26.75;;;21.40;;
21519;SDS011;10921;53.614;9.882;2022-09-16T12:02:18;18.05;;;12.50;;
21519;SDS011;10921;53.614;9.882;2022-09-16T12:07:38;15.82;;;10.70;;
21519;SDS011;10921;53.614;9.882;2022-09-16T12:10:47;18.35;;;11.40;;
21519;SDS011;10921;53.614;9.882;2022-09-16T12:13:33;20.35;;;12.15;;
21519;SDS011;10921;53.614;9.882;2022-09-16T12:19:21;43.45;;;27.92;;
21519;SDS011;10921;53.614;9.882;2022-09-16T12:21:58;35.88;;;29.60;;
21519;SDS011;10921;53.614;9.882;2022-09-16T12:27:06;32.70;;;29.13;;
21519;SDS011;10921;53.614;9.882;2022-09-16T12:32:32;31.85;;;28.27;;
21519;SDS011;10921;53.614;9.882;2022-09-16T12:35:12;27.83;;;24.90;;
21519;SDS011;10921;53.614;9.882;2022-09-16T12:40:25;31.77;;;19.85;;
21519;SDS011;10921;53.614;9.882;2022-09-16T12:51:57;38.42;;;29.88;;
21519;SDS011;10921;53.614;9.882;2022-09-16T13:00:38;28.30;;;25.70;;
21519;SDS011;10921;53.614;9.882;2022-09-16T13:03:16;28.67;;;25.73;;
21519;SDS011;10921;53.614;9.882;2022-09-16T13:05:49;26.23;;;23.75;;
21519;SDS011;10921;53.614;9.882;2022-09-16T13:08:20;24.92;;;22.67;;
21519;SDS011;10921;53.614;9.882;2022-09-16T13:11:00;24.50;;;21.90;;
21519;SDS011;10921;53.614;9.882;2022-09-16T13:13:56;21.90;;;19.77;;
21519;SDS011;10921;53.614;9.882;2022-09-16T13:16:31;22.13;;;18.70;;
21519;SDS011;10921;53.614;9.882;2022-09-16T13:21:55;21.13;;;16.30;;
21519;SDS011;10921;53.614;9.882;2022-09-16T13:24:36;18.90;;;15.25;;
21519;SDS011;10921;53.614;9.882;2022-09-16T13:27:27;20.08;;;14.23;;
21519;SDS011;10921;53.614;9.882;2022-09-16T13:32:39;26.95;;;20.38;;
21519;SDS011;10921;53.614;9.882;2022-09-16T13:37:45;29.20;;;26.17;;
21519;SDS011;10921;53.614;9.882;2022-09-16T13:40:26;31.65;;;28.23;;
21519;SDS011;10921;53.614;9.882;2022-09-16T13:43:03;34.67;;;29.00;;
21519;SDS011;10921;53.614;9.882;2022-09-16T13:45:46;31.10;;;27.95;;
21519;SDS011;10921;53.614;9.882;2022-09-16T13:48:16;31.85;;;28.50;;
21519;SDS011;10921;53.614;9.882;2022-09-16T13:50:49;31.13;;;28.05;;
21519;SDS011;10921;53.614;9.882;2022-09-16T13:53:28;34.22;;;28.27;;
21519;SDS011;10921;53.614;9.882;2022-09-16T13:56:00;32.40;;;28.35;;
21519;SDS011;10921;53.614;9.882;2022-09-16T13:58:58;31.58;;;28.25;;
21519;SDS011;10921;53.614;9.882;2022-09-16T14:02:02;32.42;;;28.23;;
21519;SDS011;10921;53.614;9.882;2022-09-16T14:05:10;32.20;;;28.25;;
21519;SDS011;10921;53.614;9.882;2022-09-16T14:11:10;30.80;;;27.75;;
21519;SDS011;10921;53.614;9.882;2022-09-16T14:13:44;33.20;;;29.48;;
21519;SDS011;10921;53.614;9.882;2022-09-16T14:16:15;37.92;;;29.08;;
21519;SDS011;10921;53.614;9.882;2022-09-16T14:18:52;32.28;;;28.92;;
21519;SDS011;10921;53.614;9.882;2022-09-16T14:21:22;31.83;;;28.70;;
21519;SDS011;10921;53.614;9.882;2022-09-16T14:23:49;32.20;;;28.80;;
21519;SDS011;10921;53.614;9.882;2022-09-16T14:26:17;31.08;;;27.98;;
21519;SDS011;10921;53.614;9.882;2022-09-16T14:28:48;32.53;;;29.05;;
21519;SDS011;10921;53.614;9.882;2022-09-16T14:31:19;33.28;;;29.80;;
21519;SDS011;10921;53.614;9.882;2022-09-16T14:36:26;35.60;;;30.42;;
21519;SDS011;10921;53.614;9.882;2022-09-16T14:39:00;38.00;;;30.70;;
21519;SDS011;10921;53.614;9.882;2022-09-16T14:41:35;34.47;;;30.15;;
21519;SDS011;10921;53.614;9.882;2022-09-16T14:49:38;34.15;;;30.45;;
21519;SDS011;10921;53.614;9.882;2022-09-16T14:52:13;37.13;;;30.83;;
21519;SDS011;10921;53.614;9.882;2022-09-16T14:54:44;33.58;;;30.38;;
21519;SDS011;10921;53.614;9.882;2022-09-16T14:57:15;41.50;;;31.08;;
21519;SDS011;10921;53.614;9.882;2022-09-16T14:59:45;43.72;;;31.77;;
21519;SDS011;10921;53.614;9.882;2022-09-16T15:04:46;34.88;;;31.25;;
21519;SDS011;10921;53.614;9.882;2022-09-16T15:07:23;36.25;;;31.23;;
21519;SDS011;10921;53.614;9.882;2022-09-16T15:09:59;36.55;;;30.65;;
21519;SDS011;10921;53.614;9.882;2022-09-16T15:15:04;37.70;;;31.52;;
21519;SDS011;10921;53.614;9.882;2022-09-16T15:17:40;33.72;;;30.30;;
21519;SDS011;10921;53.614;9.882;2022-09-16T15:20:20;33.88;;;30.17;;
21519;SDS011;10921;53.614;9.882;2022-09-16T15:22:50;34.45;;;30.85;;
21519;SDS011;10921;53.614;9.882;2022-09-16T15:25:25;33.17;;;29.77;;
21519;SDS011;10921;53.614;9.882;2022-09-16T15:28:06;33.53;;;30.23;;
21519;SDS011;10921;53.614;9.882;2022-09-16T15:30:48;37.05;;;33.28;;
21519;SDS011;10921;53.614;9.882;2022-09-16T15:33:24;36.50;;;32.67;;
21519;SDS011;10921;53.614;9.882;2022-09-16T15:36:01;35.78;;;32.45;;
21519;SDS011;10921;53.614;9.882;2022-09-16T15:38:29;36.70;;;33.10;;
21519;SDS011;10921;53.614;9.882;2022-09-16T15:41:20;36.25;;;32.80;;
21519;SDS011;10921;53.614;9.882;2022-09-16T15:43:45;37.65;;;32.17;;
21519;SDS011;10921;53.614;9.882;2022-09-16T15:46:13;37.22;;;30.88;;
21519;SDS011;10921;53.614;9.882;2022-09-16T15:49:04;38.03;;;32.05;;
21519;SDS011;10921;53.614;9.882;2022-09-16T15:51:37;40.53;;;29.88;;
21519;SDS011;10921;53.614;9.882;2022-09-16T15:54:49;35.83;;;32.08;;
21519;SDS011;10921;53.614;9.882;2022-09-16T15:57:20;36.85;;;30.13;;
21519;SDS011;10921;53.614;9.882;2022-09-16T16:00:03;34.55;;;30.55;;
21519;SDS011;10921;53.614;9.882;2022-09-16T16:05:28;34.38;;;30.48;;
21519;SDS011;10921;53.614;9.882;2022-09-16T16:07:59;33.10;;;29.65;;
21519;SDS011;10921;53.614;9.882;2022-09-16T16:10:34;33.60;;;30.27;;
21519;SDS011;10921;53.614;9.882;2022-09-16T16:13:01;36.47;;;30.48;;
21519;SDS011;10921;53.614;9.882;2022-09-16T16:15:32;35.00;;;31.50;;
21519;SDS011;10921;53.614;9.882;2022-09-16T16:18:07;41.03;;;31.35;;
21519;SDS011;10921;53.614;9.882;2022-09-16T16:20:36;34.15;;;30.52;;
21519;SDS011;10921;53.614;9.882;2022-09-16T16:23:03;41.15;;;30.40;;
21519;SDS011;10921;53.614;9.882;2022-09-16T16:25:29;32.75;;;29.60;;
21519;SDS011;10921;53.614;9.882;2022-09-16T16:27:57;43.75;;;31.85;;
21519;SDS011;10921;53.614;9.882;2022-09-16T16:30:23;36.63;;;32.33;;
21519;SDS011;10921;53.614;9.882;2022-09-16T16:32:49;40.95;;;31.95;;
21519;SDS011;10921;53.614;9.882;2022-09-16T16:35:16;34.83;;;30.98;;
21519;SDS011;10921;53.614;9.882;2022-09-16T16:37:42;48.05;;;31.50;;
21519;SDS011;10921;53.614;9.882;2022-09-16T16:40:12;45.60;;;31.58;;
21519;SDS011;10921;53.614;9.882;2022-09-16T16:42:40;40.05;;;32.30;;
21519;SDS011;10921;53.614;9.882;2022-09-16T16:45:10;42.25;;;31.65;;
21519;SDS011;10921;53.614;9.882;2022-09-16T16:47:38;52.97;;;32.92;;
21519;SDS011;10921;53.614;9.882;2022-09-16T16:50:05;41.95;;;31.20;;
21519;SDS011;10921;53.614;9.882;2022-09-16T16:52:31;51.30;;;32.42;;
21519;SDS011;10921;53.614;9.882;2022-09-16T16:54:58;51.58;;;32.15;;
21519;SDS011;10921;53.614;9.882;2022-09-16T16:57:25;46.20;;;31.83;;
21519;SDS011;10921;53.614;9.882;2022-09-16T16:59:52;57.88;;;32.97;;
21519;SDS011;10921;53.614;9.882;2022-09-16T17:02:18;53.38;;;32.28;;
21519;SDS011;10921;53.614;9.882;2022-09-16T17:04:45;54.65;;;32.05;;
21519;SDS011;10921;53.614;9.882;2022-09-16T17:07:11;50.38;;;31.58;;
21519;SDS011;10921;53.614;9.882;2022-09-16T17:09:54;43.75;;;31.02;;
21519;SDS011;10921;53.614;9.882;2022-09-16T17:12:22;48.63;;;31.90;;
21519;SDS011;10921;53.614;9.882;2022-09-16T17:14:48;40.95;;;30.80;;
21519;SDS011;10921;53.614;9.882;2022-09-16T17:17:15;48.83;;;31.38;;
21519;SDS011;10921;53.614;9.882;2022-09-16T17:19:43;49.90;;;32.15;;
21519;SDS011;10921;53.614;9.882;2022-09-16T17:22:10;48.85;;;32.17;;
21519;SDS011;10921;53.614;9.882;2022-09-16T17:24:37;50.53;;;32.70;;
21519;SDS011;10921;53.614;9.882;2022-09-16T17:27:03;44.35;;;32.05;;
21519;SDS011;10921;53.614;9.882;2022-09-16T17:29:30;44.58;;;31.73;;
21519;SDS011;10921;53.614;9.882;2022-09-16T17:31:57;45.22;;;31.50;;
21519;SDS011;10921;53.614;9.882;2022-09-16T17:34:25;62.53;;;32.47;;
21519;SDS011;10921;53.614;9.882;2022-09-16T17:36:52;49.22;;;31.35;;
21519;SDS011;10921;53.614;9.882;2022-09-16T17:39:19;44.05;;;31.08;;
21519;SDS011;10921;53.614;9.882;2022-09-16T17:41:47;49.80;;;31.77;;